M I D A S
Marine Information and Data Acquisition System
Tripno 2230 of the Zeeleeuw from 2011-08-17 06:11:50 to 2011-08-17 14:39:30
Back to CruiseResearch ActivitiesStationsMapUnderway DataData graphs

EquipmentUnitsComment
TimeDGPSUTC
LatitudeDGPSDM.mWGS84
LongitudeDGPSDM.mWGS84
HeadingGyrodeg 
SOGDGPSknotsSpeed over ground
COGDGPSdegCourse over ground
DepthEcho soundermeters200 kHz
Missing or incorrect values are displayed as -999
Navigation data collected by the RV Zeeleeuw from 2011-08-17 06:15:54 to 2011-08-17 14:50:24
Time Latitude Longitude Heading SOG COG Depth
2011-08-17 06:17:02 51°13.643 2°55.987 111.1 1.7 294 -999
2011-08-17 06:18:03 51°13.658 2°55.923 111.1 3.5 289 -999
2011-08-17 06:19:03 51°13.684 2°55.821 111.1 3.7 292 -999
2011-08-17 06:20:02 51°13.695 2°55.755 95.4 1.3 281 12.2
2011-08-17 06:21:00 51°13.714 2°55.787 38.3 1.7 31 12.1
2011-08-17 06:22:02 51°13.709 2°55.782 7.1 0.5 315 -999
2011-08-17 06:23:02 51°13.762 2°55.71 320.7 6.5 317 11.1
2011-08-17 06:24:02 51°13.866 2°55.603 335.6 8.1 334 -999
2011-08-17 06:25:02 51°13.992 2°55.512 338.3 8.5 335 -999
2011-08-17 06:26:02 51°14.119 2°55.416 337.6 8.4 334 11.3
2011-08-17 06:27:03 51°14.246 2°55.312 334.4 8.7 331 -999
2011-08-17 06:28:03 51°14.374 2°55.191 330.3 9 328 11.1
2011-08-17 06:29:02 51°14.5 2°55.065 330.6 9.2 329 11.5
2011-08-17 06:30:00 51°14.627 2°54.907 328.1 10.9 320 11.8
2011-08-17 06:30:59 51°14.775 2°54.721 328.1 11.7 323 11.7
2011-08-17 06:31:59 51°14.93 2°54.528 328 11.8 325 11.8
2011-08-17 06:33:00 51°15.112 2°54.412 352 11.5 349 9.5
2011-08-17 06:33:59 51°15.296 2°54.361 352.1 11.3 350 9.1
2011-08-17 06:35:00 51°15.487 2°54.34 356.5 11.5 353 9.7
2011-08-17 06:36:00 51°15.675 2°54.319 358.6 11.3 353 10.1
2011-08-17 06:37:00 51°15.863 2°54.304 7.2 11.3 1 10.3
2011-08-17 06:38:00 51°16.038 2°54.304 18.3 8.2 13 10.9
2011-08-17 06:39:00 51°16.137 2°54.328 1.8 5.1 351 10.9
2011-08-17 06:40:00 51°16.201 2°54.3 0.1 3.2 345 11.1
2011-08-17 06:41:00 51°16.24 2°54.284 9.6 1.5 341 11
2011-08-17 06:42:00 51°16.255 2°54.278 25.6 0.9 338 11
2011-08-17 06:43:00 51°16.266 2°54.267 21.3 0.8 326 11.1
2011-08-17 06:44:00 51°16.275 2°54.254 15.1 0.7 313 11.2
2011-08-17 06:44:59 51°16.281 2°54.239 8.5 0.7 304 11.1
2011-08-17 06:46:00 51°16.287 2°54.222 2.6 0.7 295 11
2011-08-17 06:47:00 51°16.29 2°54.204 356.2 0.7 288 11.1
2011-08-17 06:48:00 51°16.293 2°54.185 349.6 0.7 279 10.9
2011-08-17 06:49:00 51°16.301 2°54.164 350.5 2 331 11
2011-08-17 06:50:00 51°16.336 2°54.182 60.2 2.5 62 11.1
2011-08-17 06:51:00 51°16.317 2°54.244 134.8 3.4 152 11.1
2011-08-17 06:52:00 51°16.266 2°54.261 153.6 2.5 170 11
2011-08-17 06:53:00 51°16.243 2°54.259 152.7 1 201 10.8
2011-08-17 06:54:00 51°16.23 2°54.25 154.7 0.9 208 10.8
2011-08-17 06:55:00 51°16.219 2°54.238 157.4 0.8 217 10.8
2011-08-17 06:56:00 51°16.209 2°54.225 158.9 0.7 224 10.8
2011-08-17 06:57:00 51°16.2 2°54.21 160.1 0.7 227 10.8
2011-08-17 06:58:00 51°16.192 2°54.195 162.8 0.7 230 10.7
2011-08-17 06:59:00 51°16.185 2°54.179 164 0.7 231 10.8
2011-08-17 07:00:00 51°16.178 2°54.163 166.4 0.7 236 10.7
2011-08-17 07:01:00 51°16.171 2°54.147 168.3 0.8 241 10.7
2011-08-17 07:02:00 51°16.163 2°54.13 173.6 0.8 234 10.7
2011-08-17 07:02:59 51°16.157 2°54.114 174.3 0.8 239 10.8
2011-08-17 07:04:00 51°16.15 2°54.097 174.5 0.7 237 10.7
2011-08-17 07:05:00 51°16.143 2°54.079 173.1 0.7 239 10.6
2011-08-17 07:06:00 51°16.136 2°54.064 169.8 0.8 235 10.7
2011-08-17 07:07:00 51°16.13 2°54.047 167 0.7 237 10.7
2011-08-17 07:08:00 51°16.123 2°54.031 163.8 0.7 241 10.6
2011-08-17 07:09:00 51°16.117 2°54.015 163.2 0.7 241 10.7
2011-08-17 07:09:59 51°16.11 2°53.998 162.8 0.7 235 10.6
2011-08-17 07:11:00 51°16.103 2°53.981 163.1 0.8 240 10.5
2011-08-17 07:12:00 51°16.096 2°53.964 162.4 0.7 241 10.6
2011-08-17 07:13:00 51°16.077 2°53.96 137.3 2.1 154 10.6
2011-08-17 07:14:00 51°16.081 2°54.019 49.8 3.1 34 10.6
2011-08-17 07:15:00 51°16.154 2°53.979 337.6 8.1 327 10.7
2011-08-17 07:16:00 51°16.308 2°53.812 330.6 12.5 324 10.9
2011-08-17 07:17:00 51°16.477 2°53.61 329.6 12.7 323 11.1
2011-08-17 07:18:00 51°16.649 2°53.415 332 12.7 326 11.1
2011-08-17 07:18:59 51°16.811 2°53.205 324.5 12.7 319 10.2
2011-08-17 07:20:00 51°16.971 2°52.99 324.7 12.4 320 8.1
2011-08-17 07:21:00 51°17.136 2°52.783 328.8 12.6 325 9.3
2011-08-17 07:21:59 51°17.3 2°52.581 325.1 12.6 320 9.3
2011-08-17 07:23:00 51°17.463 2°52.359 326 12.7 321 9.9
2011-08-17 07:24:00 51°17.627 2°52.148 325 12.7 320 10.6
2011-08-17 07:25:00 51°17.777 2°51.911 318.2 12.7 314 9.5
2011-08-17 07:26:00 51°17.929 2°51.675 324.1 12.7 320 9.8
2011-08-17 07:27:00 51°18.093 2°51.46 324.5 12.9 319 10.7
2011-08-17 07:28:00 51°18.247 2°51.22 319.7 12.9 317 11.9
2011-08-17 07:29:00 51°18.392 2°51.063 340.5 8 333 12.8
2011-08-17 07:29:59 51°18.474 2°51.024 8.7 3.6 354 13.1
2011-08-17 07:31:00 51°18.511 2°51.014 2.5 1.2 324 13.5
2011-08-17 07:32:00 51°18.525 2°50.991 349.8 1.2 304 13.5
2011-08-17 07:33:00 51°18.533 2°50.965 345.6 1.1 293 13.6
2011-08-17 07:34:00 51°18.538 2°50.938 340.7 1 285 13.3
2011-08-17 07:35:00 51°18.54 2°50.913 337.2 1 274 13.4
2011-08-17 07:36:00 51°18.541 2°50.888 334.5 0.9 272 13.6
2011-08-17 07:36:59 51°18.54 2°50.864 334.5 0.9 265 13.6
2011-08-17 07:38:00 51°18.537 2°50.841 334.1 0.8 262 13.5
2011-08-17 07:39:00 51°18.534 2°50.82 334 0.8 257 13.6
2011-08-17 07:40:00 51°18.531 2°50.799 334.9 0.9 255 13.6
2011-08-17 07:41:00 51°18.527 2°50.778 336.5 0.8 252 13.5
2011-08-17 07:42:00 51°18.522 2°50.758 339 0.8 251 13.6
2011-08-17 07:43:00 51°18.518 2°50.739 342.7 0.8 248 13.8
2011-08-17 07:44:00 51°18.512 2°50.72 347 0.7 245 13.5
2011-08-17 07:45:00 51°18.506 2°50.702 349.1 0.8 242 13.6
2011-08-17 07:46:00 51°18.499 2°50.684 352.8 0.8 237 13.5
2011-08-17 07:47:00 51°18.492 2°50.665 356.9 0.8 237 13.6
2011-08-17 07:48:00 51°18.484 2°50.648 1.5 0.8 233 13.7
2011-08-17 07:49:00 51°18.476 2°50.63 5.9 0.9 236 13.5
2011-08-17 07:50:00 51°18.467 2°50.611 9.5 0.8 235 13.5
2011-08-17 07:51:00 51°18.459 2°50.594 12.7 0.9 233 13.5
2011-08-17 07:52:00 51°18.45 2°50.576 16.5 0.9 232 13.5
2011-08-17 07:53:00 51°18.442 2°50.558 17.4 0.9 233 13.5
2011-08-17 07:54:00 51°18.433 2°50.54 17.4 0.9 234 13.6
2011-08-17 07:55:00 51°18.424 2°50.522 15.3 0.8 234 13.6
2011-08-17 07:56:00 51°18.416 2°50.504 14.4 0.8 232 13.5
2011-08-17 07:57:00 51°18.408 2°50.486 13.9 0.9 236 13.5
2011-08-17 07:58:00 51°18.396 2°50.466 12.7 0.8 235 13.4
2011-08-17 07:59:00 51°18.392 2°50.45 11.3 0.8 237 13.6
2011-08-17 08:00:00 51°18.39 2°50.436 19.9 1.4 5 13.5
2011-08-17 08:01:00 51°18.419 2°50.534 69.4 7.6 69 13.4
2011-08-17 08:02:00 51°18.482 2°50.787 72.7 11.2 74 13.2
2011-08-17 08:03:00 51°18.519 2°51.085 77.3 11.4 76 13
2011-08-17 08:04:00 51°18.573 2°51.375 72.7 11.4 73 12.8
2011-08-17 08:05:00 51°18.627 2°51.666 73.8 11.5 74 12.3
2011-08-17 08:06:00 51°18.675 2°51.962 78.8 11.5 79 11.8
2011-08-17 08:07:00 51°18.709 2°52.26 78 11.4 79 11.4
2011-08-17 08:08:00 51°18.759 2°52.553 72.6 11.5 73 10.9
2011-08-17 08:09:00 51°18.801 2°52.849 79.4 11.4 80 10.8
2011-08-17 08:10:00 51°18.844 2°53.144 72.8 11.3 71 10.6
2011-08-17 08:11:00 51°18.903 2°53.429 77 11.4 78 11
2011-08-17 08:12:00 51°18.942 2°53.724 74.5 11.3 75 10.9
2011-08-17 08:13:00 51°18.993 2°54.014 71.9 11.4 72 10.9
2011-08-17 08:14:00 51°19.044 2°54.302 76.1 11.2 77 10.7
2011-08-17 08:15:00 51°19.082 2°54.597 76.8 11.3 76 10.8
2011-08-17 08:16:00 51°19.144 2°54.88 69 11.4 68 10.6
2011-08-17 08:17:00 51°19.202 2°55.167 74.2 11.2 74 10.6
2011-08-17 08:18:00 51°19.261 2°55.45 73.5 11.2 72 10.6
2011-08-17 08:19:00 51°19.339 2°55.72 62.9 11.3 63 10.5
2011-08-17 08:20:00 51°19.404 2°56 72.1 11.2 72 10.3
2011-08-17 08:21:00 51°19.479 2°56.271 63.2 11.2 62 10.2
2011-08-17 08:22:00 51°19.565 2°56.533 63.9 10.9 64 10.3
2011-08-17 08:23:00 51°19.645 2°56.792 64 10.7 65 10.3
2011-08-17 08:24:00 51°19.706 2°57.059 70.5 10.7 69 10.3
2011-08-17 08:25:00 51°19.762 2°57.327 70.6 10.6 68 10.1
2011-08-17 08:26:00 51°19.834 2°57.585 70.1 10.7 71 10.1
2011-08-17 08:27:00 51°19.895 2°57.85 67.3 10.5 65 10
2011-08-17 08:28:00 51°19.962 2°58.11 72.4 10.6 72 10
2011-08-17 08:29:00 51°20.034 2°58.365 66.1 10.6 65 10
2011-08-17 08:30:00 51°20.094 2°58.629 73.2 10.6 71 9.7
2011-08-17 08:31:00 51°20.157 2°58.891 68.7 10.5 68 9.7
2011-08-17 08:32:00 51°20.214 2°59.155 75.1 10.5 74 9.6
2011-08-17 08:33:00 51°20.273 2°59.416 69 10.3 68 9.5
2011-08-17 08:34:00 51°20.32 2°59.68 75.6 10.4 72 9.4
2011-08-17 08:35:00 51°20.376 2°59.94 74.1 10.5 76 9.4
2011-08-17 08:36:00 51°20.399 3°0.215 82.2 10.4 84 9.2
2011-08-17 08:37:00 51°20.426 3°0.488 76.6 10.3 76 9.2
2011-08-17 08:37:59 51°20.47 3°0.749 75.2 10.4 75 9.1
2011-08-17 08:39:00 51°20.51 3°1.025 78.6 10.6 82 9
2011-08-17 08:40:00 51°20.536 3°1.302 77 10.6 76 8.8
2011-08-17 08:41:00 51°20.571 3°1.581 82.8 10.7 85 8.6
2011-08-17 08:42:00 51°20.591 3°1.862 81.7 10.6 83 8.4
2011-08-17 08:43:00 51°20.614 3°2.138 80.5 10 81 8.6
2011-08-17 08:44:00 51°20.649 3°2.368 73.3 8.3 74 8.9
2011-08-17 08:44:59 51°20.674 3°2.522 74.2 3.9 75 8.9
2011-08-17 08:46:00 51°20.691 3°2.579 56.6 1.4 34 8.9
2011-08-17 08:47:00 51°20.713 3°2.575 30.2 1.2 297 9
2011-08-17 08:48:00 51°20.712 3°2.537 16.5 1.6 267 9.3
2011-08-17 08:49:00 51°20.711 3°2.495 7.3 1.6 264 9.1
2011-08-17 08:50:00 51°20.707 3°2.453 4 1.6 262 9.2
2011-08-17 08:51:00 51°20.702 3°2.41 359.2 1.6 257 9.2
2011-08-17 08:52:00 51°20.695 3°2.368 356.9 1.5 256 9.2
2011-08-17 08:53:00 51°20.688 3°2.327 356.7 1.6 253 9.1
2011-08-17 08:54:00 51°20.679 3°2.287 359.6 1.6 251 9.1
2011-08-17 08:55:00 51°20.671 3°2.248 2.4 1.5 250 9.2
2011-08-17 08:55:59 51°20.662 3°2.211 4.6 1.5 249 9.1
2011-08-17 08:57:00 51°20.651 3°2.173 6.1 1.5 245 9
2011-08-17 08:58:00 51°20.64 3°2.137 7.7 1.5 244 9
2011-08-17 08:59:00 51°20.632 3°2.102 9.6 1 307 9.2
2011-08-17 09:00:00 51°20.647 3°2.17 87.2 5.2 92 9
2011-08-17 09:01:00 51°20.682 3°2.352 68.4 8.1 69 9
2011-08-17 09:02:00 51°20.729 3°2.524 60.8 4.5 55 9.3
2011-08-17 09:03:00 51°20.759 3°2.546 32.7 1 319 9.3
2011-08-17 09:04:00 51°20.765 3°2.52 18.6 1.1 284 9.5
2011-08-17 09:05:00 51°20.767 3°2.488 13.5 1.2 273 9.4
2011-08-17 09:06:00 51°20.766 3°2.455 9 1.3 266 9.5
2011-08-17 09:07:00 51°20.781 3°2.451 57.4 1.6 57 9.6
2011-08-17 09:08:00 51°20.811 3°2.598 71.2 9.1 71 9.5
2011-08-17 09:09:00 51°20.877 3°2.847 65.7 10.6 63 9.3
2011-08-17 09:10:00 51°20.947 3°3.105 68.4 10.7 69 9.6
2011-08-17 09:11:00 51°20.996 3°3.378 71.9 10.6 72 9.6
2011-08-17 09:12:00 51°21.054 3°3.644 72.7 10.7 74 9.6
2011-08-17 09:13:00 51°21.108 3°3.912 67.6 10.5 68 9.5
2011-08-17 09:14:00 51°21.171 3°4.174 67.8 10.6 68 9.5
2011-08-17 09:15:00 51°21.232 3°4.437 69 10.6 72 9.7
2011-08-17 09:16:00 51°21.282 3°4.708 69.9 10.7 70 9.7
2011-08-17 09:17:00 51°21.331 3°4.984 73.8 11 75 9.8
2011-08-17 09:18:00 51°21.4 3°5.254 65.7 11 65 9.8
2011-08-17 09:19:00 51°21.47 3°5.525 71.2 11.1 72 9.7
2011-08-17 09:20:00 51°21.54 3°5.798 67.4 11.2 66 9.8
2011-08-17 09:21:00 51°21.599 3°6.081 72.9 11.2 72 9.9
2011-08-17 09:22:00 51°21.665 3°6.357 65.3 11.1 67 10.1
2011-08-17 09:23:00 51°21.743 3°6.623 66.7 11 69 10.4
2011-08-17 09:24:00 51°21.814 3°6.892 68.3 11 70 10.9
2011-08-17 09:25:00 51°21.876 3°7.167 68 10.9 67 11
2011-08-17 09:26:00 51°21.939 3°7.438 72.7 10.9 74 11.1
2011-08-17 09:27:00 51°21.988 3°7.718 72.7 10.9 74 11.4
2011-08-17 09:28:00 51°22.048 3°7.992 67.1 10.9 67 11.5
2011-08-17 09:29:00 51°22.086 3°8.275 81.4 11 84 11.6
2011-08-17 09:30:00 51°22.1 3°8.568 83.6 11 83 11.7
2011-08-17 09:31:00 51°22.129 3°8.857 80.6 11 81 11.7
2011-08-17 09:31:59 51°22.161 3°9.138 75.3 11 77 12.2
2011-08-17 09:33:00 51°22.194 3°9.432 81.2 11 83 12.5
2011-08-17 09:34:00 51°22.227 3°9.72 77.3 11 77 12.9
2011-08-17 09:35:00 51°22.238 3°10.016 88.6 11.2 91 13.7
2011-08-17 09:36:00 51°22.251 3°10.311 79.8 11.2 79 14.1
2011-08-17 09:37:00 51°22.278 3°10.608 82.8 11.3 83 17.6
2011-08-17 09:38:00 51°22.298 3°10.911 87.7 11.4 88 16.3
2011-08-17 09:39:00 51°22.317 3°11.209 80.3 11.3 78 15.6
2011-08-17 09:40:00 51°22.347 3°11.506 84 11.4 83 15.4
2011-08-17 09:41:00 51°22.385 3°11.805 79.4 11.5 78 15.3
2011-08-17 09:42:00 51°22.41 3°12.108 84.2 11.5 83 15.2
2011-08-17 09:43:00 51°22.44 3°12.408 80.4 11.4 79 14
2011-08-17 09:44:00 51°22.475 3°12.706 81.8 11.4 80 13.1
2011-08-17 09:45:00 51°22.495 3°12.957 86 6.7 85 12.4
2011-08-17 09:46:00 51°22.509 3°13.092 76.3 4.4 72 12.1
2011-08-17 09:47:00 51°22.534 3°13.196 70.9 4 67 11.7
2011-08-17 09:48:00 51°22.569 3°13.272 40.1 3.3 21 11.6
2011-08-17 09:49:00 51°22.616 3°13.266 7.1 2.4 345 11.6
2011-08-17 09:50:00 51°22.638 3°13.245 5.9 1.4 320 11.7
2011-08-17 09:51:00 51°22.653 3°13.221 357.9 1.2 310 11.7
2011-08-17 09:52:00 51°22.663 3°13.197 353.1 1.1 302 11.8
2011-08-17 09:53:00 51°22.672 3°13.173 348.4 1 297 11.7
2011-08-17 09:54:00 51°22.679 3°13.148 345.9 1 291 11.9
2011-08-17 09:55:00 51°22.684 3°13.124 341.9 0.9 286 11.9
2011-08-17 09:56:00 51°22.688 3°13.1 337.1 0.9 282 11.8
2011-08-17 09:56:59 51°22.69 3°13.076 332.5 1 276 11.9
2011-08-17 09:58:00 51°22.691 3°13.051 328.5 0.9 274 12
2011-08-17 09:59:00 51°22.692 3°13.028 325.4 0.9 272 12
2011-08-17 10:00:00 51°22.693 3°13.006 323.1 0.9 272 12
2011-08-17 10:01:00 51°22.693 3°12.984 321.6 0.8 270 12.1
2011-08-17 10:02:00 51°22.692 3°12.963 322.7 0.8 269 12.2
2011-08-17 10:03:00 51°22.697 3°12.938 332.7 1.7 309 12.1
2011-08-17 10:04:00 51°22.731 3°12.924 31.4 2.3 20 12.1
2011-08-17 10:05:00 51°22.74 3°12.976 101.5 2.5 117 12
2011-08-17 10:06:00 51°22.705 3°13.03 115.3 2.9 121 12
2011-08-17 10:07:00 51°22.73 3°13.089 29.6 3.9 9 11.7
2011-08-17 10:08:00 51°22.851 3°13.05 357.1 10.9 350 11.1
2011-08-17 10:09:00 51°23.04 3°12.955 340.5 12.4 331 10.8
2011-08-17 10:10:00 51°23.208 3°12.751 327.7 12.7 318 11.2
2011-08-17 10:11:00 51°23.364 3°12.523 324.7 12.6 319 11.5
2011-08-17 10:12:00 51°23.53 3°12.322 328.9 12.5 320 11.3
2011-08-17 10:13:00 51°23.687 3°12.098 325.7 12.6 318 11.4
2011-08-17 10:14:00 51°23.849 3°11.888 326.9 12.7 318 12.6
2011-08-17 10:15:00 51°24 3°11.653 322.1 12.7 315 15.4
2011-08-17 10:16:00 51°24.142 3°11.397 314.3 12.9 309 18
2011-08-17 10:17:00 51°24.246 3°11.093 294 13.3 288 18.5
2011-08-17 10:18:00 51°24.302 3°10.748 289.5 13.5 286 18.4
2011-08-17 10:19:00 51°24.36 3°10.404 287.8 13.4 284 16.6
2011-08-17 10:20:00 51°24.432 3°10.072 297.1 12.9 292 13.2
2011-08-17 10:21:00 51°24.498 3°9.753 290.9 12.5 286 11.3
2011-08-17 10:22:00 51°24.565 3°9.441 293.8 12.4 288 10.4
2011-08-17 10:23:00 51°24.637 3°9.135 296.9 12.2 292 9.8
2011-08-17 10:24:00 51°24.731 3°8.851 303.6 12.1 298 9.2
2011-08-17 10:25:00 51°24.827 3°8.57 306.6 12 302 8.8
2011-08-17 10:26:00 51°24.93 3°8.3 307.3 11.9 301 8.2
2011-08-17 10:27:00 51°25.034 3°8.037 315 11.6 309 7.7
2011-08-17 10:28:00 51°25.19 3°7.886 350.9 10.9 348 8.2
2011-08-17 10:29:00 51°25.362 3°7.941 21.2 10.7 19 8.3
2011-08-17 10:30:00 51°25.532 3°8.024 18.8 10.6 17 8.7
2011-08-17 10:31:00 51°25.701 3°8.102 18.2 10.6 15 9
2011-08-17 10:32:00 51°25.872 3°8.174 17.1 10.5 13 9.2
2011-08-17 10:32:59 51°26.037 3°8.247 26.2 10.5 26 9.4
2011-08-17 10:34:00 51°26.19 3°8.392 29.1 10.5 30 9.4
2011-08-17 10:35:00 51°26.346 3°8.484 20 8.6 19 10
2011-08-17 10:36:00 51°26.432 3°8.549 29.2 3.7 31 10.1
2011-08-17 10:37:00 51°26.467 3°8.578 13 1.6 7 10.1
2011-08-17 10:38:00 51°26.478 3°8.575 18.2 0.1 227 10.1
2011-08-17 10:39:00 51°26.469 3°8.576 40 0.8 174 10
2011-08-17 10:40:00 51°26.453 3°8.577 47.4 1.2 179 10.2
2011-08-17 10:41:00 51°26.432 3°8.575 52.4 1.4 184 10
2011-08-17 10:42:00 51°26.41 3°8.575 49.3 1.2 173 10
2011-08-17 10:43:00 51°26.389 3°8.573 43.8 1.4 186 9.3
2011-08-17 10:44:00 51°26.365 3°8.568 48 1.5 188 10.1
2011-08-17 10:45:00 51°26.34 3°8.561 54.9 1.7 191 10.2
2011-08-17 10:46:00 51°26.313 3°8.552 62.4 1.7 190 10.2
2011-08-17 10:47:00 51°26.286 3°8.548 68.3 1.3 144 10.2
2011-08-17 10:48:00 51°26.314 3°8.566 355.6 3.7 335 10.3
2011-08-17 10:49:00 51°26.383 3°8.46 328.9 6.8 316 10.5
2011-08-17 10:50:00 51°26.468 3°8.358 343 4.6 330 10.2
2011-08-17 10:51:00 51°26.491 3°8.329 15.3 1.2 212 10.3
2011-08-17 10:52:01 51°26.467 3°8.313 25.1 1.5 201 5.1
2011-08-17 10:53:04 51°26.441 3°8.298 29.8 1.7 200 -999
2011-08-17 10:54:03 51°26.415 3°8.284 35.1 1.7 199 10.4
2011-08-17 10:55:01 51°26.389 3°8.271 44.3 1.7 196 10.3
2011-08-17 10:56:00 51°26.361 3°8.259 57.8 1.8 196 10.3
2011-08-17 10:57:00 51°26.333 3°8.246 70.1 1.8 195 10.1
2011-08-17 10:58:00 51°26.304 3°8.233 84.7 1.8 195 10.3
2011-08-17 10:59:00 51°26.274 3°8.222 98.1 1.9 193 10.1
2011-08-17 11:00:00 51°26.244 3°8.21 107.9 1.9 194 9.8
2011-08-17 11:01:00 51°26.213 3°8.2 113.5 1.9 193 9.9
2011-08-17 11:02:00 51°26.181 3°8.209 93.5 1.9 149 9.7
2011-08-17 11:03:00 51°26.194 3°8.248 12.1 2.9 354 10.1
2011-08-17 11:04:00 51°26.282 3°8.143 333 9.7 324 10
2011-08-17 11:05:00 51°26.417 3°7.944 319.5 11.6 311 9.4
2011-08-17 11:06:00 51°26.529 3°7.682 313.3 12 305 9.9
2011-08-17 11:07:00 51°26.655 3°7.434 320.6 12 313 11
2011-08-17 11:08:00 51°26.772 3°7.17 308 12.3 300 11.6
2011-08-17 11:09:00 51°26.875 3°6.887 310.2 12.3 303 12
2011-08-17 11:10:00 51°26.991 3°6.619 310 12.3 301 12.7
2011-08-17 11:11:00 51°27.082 3°6.321 305.4 12.5 297 13.1
2011-08-17 11:12:00 51°27.187 3°6.035 309.7 12.5 299 13.4
2011-08-17 11:13:00 51°27.28 3°5.734 304.5 12.6 297 14
2011-08-17 11:14:00 51°27.387 3°5.449 309.6 12.5 301 14.6
2011-08-17 11:15:00 51°27.464 3°5.135 291.6 13.1 283 14.7
2011-08-17 11:16:00 51°27.49 3°4.786 282.5 13.3 274 13
2011-08-17 11:17:00 51°27.508 3°4.434 284.3 13.3 278 13.8
2011-08-17 11:18:00 51°27.554 3°4.092 294.9 13 288 15.1
2011-08-17 11:19:00 51°27.656 3°3.798 316 12.3 310 16.7
2011-08-17 11:20:00 51°27.802 3°3.571 325.5 12.3 316 18.3
2011-08-17 11:21:00 51°27.955 3°3.373 337.2 10.2 327 20.1
2011-08-17 11:22:00 51°28.062 3°3.286 355.6 5.1 344 21.4
2011-08-17 11:23:00 51°28.129 3°3.269 10.2 3.6 358 22.1
2011-08-17 11:24:00 51°28.175 3°3.292 41.1 2.6 41 22.3
2011-08-17 11:25:00 51°28.21 3°3.328 29.9 2.6 28 22.5
2011-08-17 11:26:00 51°28.256 3°3.399 44.9 3.9 45 22.7
2011-08-17 11:27:00 51°28.289 3°3.455 53.3 1.5 64 22.7
2011-08-17 11:28:00 51°28.278 3°3.475 86.3 1.2 155 22.3
2011-08-17 11:29:00 51°28.256 3°3.484 92.3 1.4 174 22.2
2011-08-17 11:30:00 51°28.232 3°3.483 93 1.4 186 22.2
2011-08-17 11:31:00 51°28.208 3°3.478 90.3 1.5 191 22
2011-08-17 11:32:00 51°28.185 3°3.469 91.5 1.5 196 21.9
2011-08-17 11:33:00 51°28.161 3°3.457 92.2 1.5 200 21.9
2011-08-17 11:34:00 51°28.138 3°3.441 91.7 1.5 203 21.7
2011-08-17 11:35:00 51°28.113 3°3.423 93.7 1.6 205 21.7
2011-08-17 11:36:00 51°28.089 3°3.403 96.7 1.6 208 21.7
2011-08-17 11:37:00 51°28.065 3°3.383 99.5 1.7 208 21.4
2011-08-17 11:38:00 51°28.039 3°3.361 103.5 1.7 205 21.4
2011-08-17 11:39:00 51°28.03 3°3.389 47.2 1.8 48 21.1
2011-08-17 11:40:00 51°28.079 3°3.378 346.9 4.3 329 21.4
2011-08-17 11:41:00 51°28.154 3°3.323 352 5.3 337 22.5
2011-08-17 11:42:00 51°28.23 3°3.33 35.9 4.5 34 22.6
2011-08-17 11:43:00 51°28.276 3°3.404 49.8 3 57 22.7
2011-08-17 11:44:00 51°28.281 3°3.455 79.6 1.2 134 22.6
2011-08-17 11:45:00 51°28.258 3°3.465 105.4 1.5 173 22.8
2011-08-17 11:46:00 51°28.232 3°3.467 105.7 1.5 182 22.4
2011-08-17 11:47:00 51°28.207 3°3.463 100.8 1.5 186 22.2
2011-08-17 11:48:00 51°28.183 3°3.456 98.8 1.5 192 22.1
2011-08-17 11:49:00 51°28.158 3°3.446 99.9 1.5 195 22
2011-08-17 11:50:00 51°28.134 3°3.435 98.6 1.5 198 21.7
2011-08-17 11:51:00 51°28.109 3°3.422 101.4 1.6 200 21.8
2011-08-17 11:52:00 51°28.084 3°3.408 100.4 1.6 199 21.4
2011-08-17 11:53:00 51°28.06 3°3.393 98.4 1.6 201 21.4
2011-08-17 11:54:00 51°28.035 3°3.378 96.5 1.6 202 21.3
2011-08-17 11:55:00 51°28.012 3°3.361 97.2 1.6 204 21
2011-08-17 11:56:00 51°27.987 3°3.344 99.1 1.6 201 20.9
2011-08-17 11:57:00 51°27.944 3°3.366 147.9 4.2 168 20.6
2011-08-17 11:58:00 51°27.851 3°3.305 220 9.7 218 19.8
2011-08-17 11:59:00 51°27.679 3°3.104 217.2 13.9 217 18.5
2011-08-17 12:00:00 51°27.492 3°2.884 215.9 13.9 216 15.3
2011-08-17 12:01:00 51°27.306 3°2.663 220.3 14.1 219 12.5
2011-08-17 12:02:00 51°27.126 3°2.42 221.4 14.2 221 13.5
2011-08-17 12:03:00 51°26.945 3°2.18 220.4 14.1 221 13.9
2011-08-17 12:04:00 51°26.756 3°1.958 211.3 14 213 13.4
2011-08-17 12:05:00 51°26.56 3°1.753 214.1 14.1 216 13.3
2011-08-17 12:06:00 51°26.372 3°1.534 213 13.8 212 13.4
2011-08-17 12:07:00 51°26.183 3°1.323 219.2 13.8 217 13
2011-08-17 12:08:00 51°26 3°1.1 215.7 13.8 214 12.9
2011-08-17 12:09:00 51°25.812 3°0.889 220 13.9 220 13.7
2011-08-17 12:10:00 51°25.635 3°0.658 219.1 13.7 218 15.2
2011-08-17 12:11:00 51°25.453 3°0.441 217.8 13.7 216 15.8
2011-08-17 12:12:00 51°25.277 3°0.211 221.6 13.6 220 16.6
2011-08-17 12:13:00 51°25.094 2°59.994 216.8 13.7 216 17.3
2011-08-17 12:14:00 51°24.915 2°59.772 221.4 13.6 222 18.6
2011-08-17 12:15:00 51°24.743 2°59.534 222.2 13.6 220 20.2
2011-08-17 12:16:00 51°24.566 2°59.309 217.7 13.6 216 16.8
2011-08-17 12:17:00 51°24.382 2°59.097 217.5 13.6 217 16.2
2011-08-17 12:18:00 51°24.211 2°58.86 223.5 13.6 221 16.5
2011-08-17 12:19:00 51°24.035 2°58.632 221.5 13.6 220 14.6
2011-08-17 12:20:00 51°23.868 2°58.385 225.1 13.7 223 17
2011-08-17 12:21:00 51°23.69 2°58.156 219.8 13.8 218 16.9
2011-08-17 12:22:00 51°23.518 2°57.916 223.6 13.7 222 18.1
2011-08-17 12:23:00 51°23.349 2°57.672 221.3 13.6 219 18
2011-08-17 12:24:00 51°23.168 2°57.452 216.7 13.6 217 19.1
2011-08-17 12:25:00 51°22.995 2°57.219 223 13.5 223 19.1
2011-08-17 12:26:00 51°22.825 2°56.991 216.4 13.3 218 19.4
2011-08-17 12:27:00 51°22.656 2°56.762 222.6 13.4 223 19.6
2011-08-17 12:28:00 51°22.485 2°56.535 217.4 13.3 217 19.4
2011-08-17 12:29:00 51°22.319 2°56.301 221.6 13.3 220 19.2
2011-08-17 12:30:00 51°22.144 2°56.082 217.7 13.4 218 19.1
2011-08-17 12:31:00 51°21.965 2°55.868 217.7 13.4 218 19.1
2011-08-17 12:32:00 51°21.794 2°55.638 220 13.4 220 19
2011-08-17 12:33:00 51°21.618 2°55.422 216.6 13.3 218 18.9
2011-08-17 12:34:00 51°21.45 2°55.191 220.9 13.4 221 18.7
2011-08-17 12:35:00 51°21.267 2°54.99 212.5 13.4 213 18.6
2011-08-17 12:36:00 51°21.083 2°54.79 214.2 13.3 215 18.2
2011-08-17 12:37:00 51°20.907 2°54.573 217.1 13.4 218 18.2
2011-08-17 12:38:00 51°20.731 2°54.36 216.6 13.2 217 18
2011-08-17 12:39:00 51°20.55 2°54.161 212.1 13.2 214 18
2011-08-17 12:40:00 51°20.368 2°53.965 215 13.1 214 17.6
2011-08-17 12:41:00 51°20.186 2°53.772 212.7 13.1 214 17.5
2011-08-17 12:42:00 51°20.013 2°53.556 220.6 13.2 220 17.1
2011-08-17 12:43:00 51°19.841 2°53.336 218.8 13.1 218 16.9
2011-08-17 12:44:00 51°19.661 2°53.139 215.1 13.2 215 16.4
2011-08-17 12:45:00 51°19.488 2°52.926 222.6 13.1 222 16.1
2011-08-17 12:46:00 51°19.316 2°52.709 216.1 13.2 215 16
2011-08-17 12:47:00 51°19.136 2°52.509 217.3 13.2 218 15.7
2011-08-17 12:48:00 51°18.967 2°52.287 216.9 13.1 216 15.3
2011-08-17 12:49:00 51°18.788 2°52.093 214.3 13.1 214 15.1
2011-08-17 12:50:00 51°18.619 2°51.874 221.2 13.1 222 14.8
2011-08-17 12:51:00 51°18.448 2°51.663 214.9 12.9 214 14.7
2011-08-17 12:52:00 51°18.276 2°51.46 219.2 12.9 220 14.2
2011-08-17 12:53:00 51°18.114 2°51.233 220.6 12.9 220 14.4
2011-08-17 12:54:00 51°17.946 2°51.02 214.8 12.9 214 14.1
2011-08-17 12:55:00 51°17.774 2°50.818 219 12.8 221 13.8
2011-08-17 12:56:00 51°17.618 2°50.587 222.6 12.8 221 13.6
2011-08-17 12:57:00 51°17.45 2°50.384 218.1 12.6 218 13.2
2011-08-17 12:58:00 51°17.288 2°50.176 222.8 12.4 222 12.9
2011-08-17 12:59:00 51°17.137 2°49.954 222.9 12.3 223 12.7
2011-08-17 13:00:00 51°16.983 2°49.74 222.2 12.2 220 12.1
2011-08-17 13:01:00 51°16.818 2°49.547 216.3 12.3 215 11.7
2011-08-17 13:02:00 51°16.657 2°49.345 219.1 12.3 217 13.6
2011-08-17 13:03:00 51°16.492 2°49.154 219 12.2 216 17.8
2011-08-17 13:04:00 51°16.336 2°48.952 220.5 12 217 17.8
2011-08-17 13:05:00 51°16.173 2°48.768 217.8 11.9 215 17.5
2011-08-17 13:06:00 51°16.02 2°48.57 224.7 11.8 221 16.9
2011-08-17 13:07:00 51°15.867 2°48.377 219 11.8 214 16.1
2011-08-17 13:08:00 51°15.706 2°48.196 218.3 11.8 216 14.8
2011-08-17 13:09:00 51°15.548 2°48.012 218.1 11.8 215 13.8
2011-08-17 13:10:00 51°15.397 2°47.815 223.6 11.7 222 13.2
2011-08-17 13:11:00 51°15.24 2°47.632 216.3 11.7 213 12.6
2011-08-17 13:12:00 51°15.086 2°47.444 221.6 11.7 217 12.6
2011-08-17 13:13:00 51°14.928 2°47.259 217 11.8 213 14.3
2011-08-17 13:14:00 51°14.765 2°47.084 217.1 11.8 215 15.8
2011-08-17 13:15:00 51°14.61 2°46.896 223.1 11.6 221 15.9
2011-08-17 13:16:00 51°14.457 2°46.706 218.5 11.6 215 15.5
2011-08-17 13:17:00 51°14.301 2°46.527 221.5 11.5 219 14.6
2011-08-17 13:18:00 51°14.153 2°46.341 219.2 11.4 217 13.4
2011-08-17 13:19:00 51°13.999 2°46.168 221.1 11.3 219 12.6
2011-08-17 13:20:00 51°13.857 2°45.972 222.2 11.4 219 12.2
2011-08-17 13:21:00 51°13.705 2°45.794 218.6 11.3 216 12.1
2011-08-17 13:22:00 51°13.567 2°45.591 227.2 11.3 224 13.5
2011-08-17 13:23:00 51°13.42 2°45.401 220.7 11.3 218 14.5
2011-08-17 13:24:00 51°13.28 2°45.201 225 11.3 222 14.9
2011-08-17 13:25:00 51°13.134 2°45.013 221.2 11.3 217 15.1
2011-08-17 13:26:00 51°12.995 2°44.816 222.1 11.2 220 15.3
2011-08-17 13:27:00 51°12.853 2°44.622 226.1 11.1 223 15.4
2011-08-17 13:28:00 51°12.709 2°44.434 221.8 11.2 221 15.1
2011-08-17 13:29:00 51°12.571 2°44.238 221 11.1 217 15
2011-08-17 13:30:00 51°12.432 2°44.041 224.4 11.2 222 14.4
2011-08-17 13:31:00 51°12.286 2°43.856 219.9 11.2 219 14
2011-08-17 13:32:00 51°12.148 2°43.661 226.7 11 224 12.3
2011-08-17 13:33:00 51°12.005 2°43.471 221.1 11.2 218 11.2
2011-08-17 13:34:00 51°11.862 2°43.281 225.9 11.2 223 11.7
2011-08-17 13:35:00 51°11.715 2°43.099 216.8 11.3 213 12.8
2011-08-17 13:36:00 51°11.558 2°42.93 220.7 11.4 217 14.2
2011-08-17 13:37:00 51°11.407 2°42.749 220.2 11.4 217 14.8
2011-08-17 13:38:00 51°11.25 2°42.576 217.4 11.5 212 15.2
2011-08-17 13:39:00 51°11.097 2°42.419 219.3 8.7 215 15.8
2011-08-17 13:40:00 51°11.055 2°42.309 258.2 3.7 259 16
2011-08-17 13:41:00 51°11.046 2°42.217 263.4 3.2 271 15.9
2011-08-17 13:42:00 51°11.066 2°42.151 278.1 2.4 281 16
2011-08-17 13:43:00 51°11.072 2°42.087 288 2.5 305 15.8
2011-08-17 13:44:00 51°11.092 2°42.075 315.3 1 21 15.7
2011-08-17 13:45:00 51°11.106 2°42.088 325.5 1 37 15.7
2011-08-17 13:46:00 51°11.119 2°42.107 330.4 1 48 15.7
2011-08-17 13:47:00 51°11.128 2°42.129 330.4 1 61 15.7
2011-08-17 13:48:00 51°11.134 2°42.15 326.2 0.9 68 15.6
2011-08-17 13:49:00 51°11.139 2°42.174 321.2 1 73 15.5
2011-08-17 13:50:00 51°11.143 2°42.197 313.3 0.9 81 15.7
2011-08-17 13:51:00 51°11.144 2°42.221 305.4 0.9 85 15.7
2011-08-17 13:52:00 51°11.144 2°42.245 300.1 1 85 15.7
2011-08-17 13:53:00 51°11.146 2°42.27 297.4 0.9 91 15.7
2011-08-17 13:54:00 51°11.148 2°42.296 296.9 0.9 83 15.7
2011-08-17 13:55:00 51°11.149 2°42.321 298.7 0.9 83 15.7
2011-08-17 13:56:00 51°11.155 2°42.303 266.8 2.1 266 15.7
2011-08-17 13:57:00 51°11.124 2°42.228 243.2 4.4 240 15.6
2011-08-17 13:58:00 51°11.086 2°42.116 245.4 5 240 15.8
2011-08-17 13:59:00 51°11.023 2°42.106 163.5 4.8 140 15.9
2011-08-17 14:00:00 51°11.006 2°42.24 79.1 5.8 75 16
2011-08-17 14:01:00 51°11.054 2°42.488 73.7 12.8 74 15.9
2011-08-17 14:02:00 51°11.117 2°42.837 72.3 14.1 70 15.9
2011-08-17 14:03:00 51°11.191 2°43.188 75.2 14 75 16.1
2011-08-17 14:04:00 51°11.251 2°43.546 71.8 14 71 15.9
2011-08-17 14:05:00 51°11.331 2°43.895 73.7 13.9 73 16
2011-08-17 14:06:00 51°11.397 2°44.246 71.5 13.9 70 16
2011-08-17 14:07:00 51°11.478 2°44.588 69.7 13.7 70 16
2011-08-17 14:08:00 51°11.557 2°44.933 71.4 13.8 70 16.1
2011-08-17 14:09:00 51°11.624 2°45.284 75.2 13.8 73 16.1
2011-08-17 14:10:00 51°11.693 2°45.633 72 13.8 70 16.1
2011-08-17 14:11:00 51°11.774 2°45.975 70.2 13.8 69 16.2
2011-08-17 14:12:00 51°11.848 2°46.324 74 13.9 72 16
2011-08-17 14:13:00 51°11.921 2°46.674 72.8 13.9 70 16
2011-08-17 14:14:00 51°12.009 2°47.013 66.6 13.9 65 15.9
2011-08-17 14:15:00 51°12.098 2°47.353 71.3 13.8 71 15.9
2011-08-17 14:16:00 51°12.179 2°47.696 68.8 13.8 66 15.6
2011-08-17 14:17:00 51°12.266 2°48.035 71.6 13.7 70 15.5
2011-08-17 14:18:00 51°12.36 2°48.368 63.4 13.8 63 15.3
2011-08-17 14:19:00 51°12.461 2°48.695 68 13.7 67 15.1
2011-08-17 14:20:00 51°12.561 2°49.022 62.2 13.8 61 15
2011-08-17 14:21:00 51°12.664 2°49.349 67.3 13.8 66 14.8
2011-08-17 14:22:00 51°12.76 2°49.68 65.1 13.7 63 14.5
2011-08-17 14:23:00 51°12.877 2°49.994 60 13.7 59 14.4
2011-08-17 14:24:00 51°12.984 2°50.318 64.7 13.8 63 14.2
2011-08-17 14:25:00 51°13.098 2°50.634 59.7 13.8 58 14.1
2011-08-17 14:26:00 51°13.213 2°50.952 63.7 13.9 63 14.1
2011-08-17 14:27:00 51°13.323 2°51.275 61.4 13.8 60 13.8
2011-08-17 14:28:00 51°13.434 2°51.595 65.7 13.7 64 13.7
2011-08-17 14:29:00 51°13.546 2°51.915 60 13.7 58 13.5
2011-08-17 14:30:00 51°13.658 2°52.231 65.6 13.7 64 13.3
2011-08-17 14:31:00 51°13.771 2°52.547 59.6 13.7 58 13.2
2011-08-17 14:32:00 51°13.88 2°52.866 65.3 13.7 63 13
2011-08-17 14:33:00 51°13.998 2°53.179 61.1 13.8 60 12.7
2011-08-17 14:34:00 51°14.109 2°53.499 61.1 13.8 58 12.3
2011-08-17 14:35:00 51°14.243 2°53.797 55.3 13.8 54 12.4
2011-08-17 14:36:00 51°14.372 2°54.094 59.4 13.2 58 12.5
2011-08-17 14:37:00 51°14.5 2°54.395 57.5 13.8 55 12.9
2011-08-17 14:38:00 51°14.611 2°54.707 79.1 13.2 82 14.4
2011-08-17 14:39:00 51°14.526 2°55.002 135.8 12.5 133 14.9
2011-08-17 14:40:00 51°14.361 2°55.191 145.2 11.6 147 13
2011-08-17 14:41:04 51°14.206 2°55.347 152 9.2 153 -999
2011-08-17 14:42:04 51°14.081 2°55.442 156.1 6.8 157 -999
2011-08-17 14:43:04 51°13.989 2°55.505 157 5.8 157 -999
2011-08-17 14:44:04 51°13.903 2°55.565 156 5.6 156 -999
2011-08-17 14:45:04 51°13.819 2°55.627 149 5.5 152 -999
2011-08-17 14:46:04 51°13.75 2°55.716 134 5.4 134 -999
2011-08-17 14:47:04 51°13.691 2°55.82 127.2 4.7 129 -999
2011-08-17 14:48:04 51°13.653 2°55.905 115.7 3.4 119 -999
2011-08-17 14:49:04 51°13.639 2°55.979 94.9 2.6 98 -999
2011-08-17 14:50:04 51°13.635 2°56.014 109 0.6 112 -999